Time;durP1;ratioP1;P1;durP2;ratioP2;P2;SDS_P1;SDS_P2;PMS_P1;PMS_P2;Temp;Humidity;BMP_temperature;BMP_pressure;BME280_temperature;BME280_humidity;BME280_pressure;Samples;Min_cycle;Max_cycle;Signal;HPM_P1;HPM_P2
2021/07/18 00:00:48;;;;;;;12.80;8.23;;;18.00;92.50;;;;;;5064020;28;20526;-79
2021/07/18 00:03:17;;;;;;;8.10;7.30;;;17.90;92.20;;;;;;5064837;28;20485;-79
2021/07/18 00:05:44;;;;;;;8.27;7.13;;;17.90;91.90;;;;;;5064016;28;20495;-79
2021/07/18 00:08:10;;;;;;;9.07;7.10;;;17.80;92.00;;;;;;5060754;28;20487;-79
2021/07/18 00:10:37;;;;;;;8.03;6.50;;;17.80;92.10;;;;;;5054743;28;20482;-79
2021/07/18 00:13:04;;;;;;;10.27;7.63;;;17.70;92.20;;;;;;5054379;28;21237;-79
2021/07/18 00:15:31;;;;;;;7.50;6.63;;;17.70;92.20;;;;;;5053256;28;20540;-79
2021/07/18 00:17:58;;;;;;;12.23;6.97;;;17.60;92.50;;;;;;5050746;28;20455;-79
2021/07/18 00:20:26;;;;;;;9.70;6.50;;;17.50;92.60;;;;;;5058171;28;20456;-79
2021/07/18 00:22:54;;;;;;;8.13;6.83;;;17.50;93.00;;;;;;5072238;28;20456;-79
2021/07/18 00:25:23;;;;;;;7.97;6.90;;;17.40;93.40;;;;;;5057757;28;20466;-79
2021/07/18 00:27:49;;;;;;;8.50;7.60;;;17.40;93.50;;;;;;5062312;28;20528;-79
2021/07/18 00:30:16;;;;;;;8.43;7.17;;;17.40;93.50;;;;;;5063077;28;20441;-79
2021/07/18 00:32:43;;;;;;;7.97;6.23;;;17.30;93.50;;;;;;5067022;28;20459;-79
2021/07/18 00:35:11;;;;;;;9.33;6.40;;;17.30;93.40;;;;;;5061428;28;20491;-80
2021/07/18 00:37:39;;;;;;;7.53;6.83;;;17.20;93.30;;;;;;5061998;28;20453;-79
2021/07/18 00:40:08;;;;;;;6.93;6.00;;;17.10;93.30;;;;;;5054449;28;20511;-79
2021/07/18 00:42:36;;;;;;;6.37;5.77;;;17.10;93.10;;;;;;5057109;28;20519;-79
2021/07/18 00:45:03;;;;;;;7.47;5.47;;;17.10;92.60;;;;;;5065090;28;20537;-79
2021/07/18 00:47:31;;;;;;;9.10;5.90;;;17.10;92.50;;;;;;5064633;28;20474;-79
2021/07/18 00:50:00;;;;;;;7.37;5.40;;;17.10;92.30;;;;;;5062214;28;20443;-79
2021/07/18 00:52:27;;;;;;;9.37;5.40;;;17.10;92.00;;;;;;5052700;28;20447;-79
2021/07/18 00:54:55;;;;;;;7.30;5.07;;;17.10;91.60;;;;;;5065697;28;20466;-79
2021/07/18 00:57:23;;;;;;;6.60;5.03;;;17.00;91.40;;;;;;5059828;28;20441;-79
2021/07/18 00:59:50;;;;;;;5.30;4.80;;;17.00;91.40;;;;;;5065469;28;20447;-79
2021/07/18 01:02:17;;;;;;;6.70;4.70;;;16.90;91.50;;;;;;5057477;28;20455;-78
2021/07/18 01:04:44;;;;;;;6.40;4.83;;;16.90;91.20;;;;;;5061246;28;20485;-79
2021/07/18 01:07:11;;;;;;;10.83;4.80;;;16.80;91.20;;;;;;5060756;28;20446;-79
2021/07/18 01:09:39;;;;;;;4.60;4.20;;;16.90;91.10;;;;;;5062139;28;20441;-79
2021/07/18 01:12:08;;;;;;;7.60;4.40;;;16.80;90.90;;;;;;5057277;28;20443;-79
2021/07/18 01:14:35;;;;;;;4.87;4.30;;;16.80;90.80;;;;;;5047641;28;20894;-79
2021/07/18 01:17:03;;;;;;;7.50;4.50;;;16.80;90.60;;;;;;5056552;28;20497;-79
2021/07/18 01:19:33;;;;;;;8.50;4.77;;;16.70;90.70;;;;;;5051153;28;20528;-79
2021/07/18 01:22:03;;;;;;;8.97;5.30;;;16.60;91.10;;;;;;5045381;28;20538;-79
2021/07/18 01:24:33;;;;;;;4.70;4.20;;;16.60;91.40;;;;;;5059893;28;21018;-79
2021/07/18 01:27:02;;;;;;;7.03;4.60;;;16.40;92.10;;;;;;5051770;28;20451;-79
2021/07/18 01:29:34;;;;;;;11.40;4.90;;;16.30;92.90;;;;;;5055433;28;20453;-79
2021/07/18 01:32:02;;;;;;;8.80;5.40;;;16.30;93.30;;;;;;5060342;28;20446;-80
2021/07/18 01:34:30;;;;;;;5.10;4.60;;;16.20;93.40;;;;;;5042936;28;20455;-79
2021/07/18 01:36:57;;;;;;;7.47;4.90;;;16.20;93.70;;;;;;5047577;28;20455;-78
2021/07/18 01:39:25;;;;;;;5.67;4.60;;;16.20;93.40;;;;;;5051547;28;20488;-79
2021/07/18 01:41:57;;;;;;;7.03;5.30;;;16.30;93.30;;;;;;5045886;28;20555;-78
2021/07/18 01:44:24;;;;;;;6.80;4.80;;;16.30;93.10;;;;;;5049116;28;20489;-78
2021/07/18 01:46:52;;;;;;;7.30;4.80;;;16.30;92.90;;;;;;5044562;28;20484;-79
2021/07/18 01:49:19;;;;;;;6.77;6.07;;;16.20;92.90;;;;;;5057778;28;20447;-79
2021/07/18 01:51:46;;;;;;;5.30;4.43;;;16.20;92.90;;;;;;5066960;28;20483;-79
2021/07/18 01:54:14;;;;;;;10.07;6.30;;;16.10;93.30;;;;;;5064829;28;20476;-79
2021/07/18 01:56:43;;;;;;;8.90;5.20;;;16.00;94.10;;;;;;5060321;28;20455;-79
2021/07/18 01:59:13;;;;;;;8.57;5.60;;;15.90;94.00;;;;;;5064702;28;20441;-78
2021/07/18 02:01:39;;;;;;;9.97;6.10;;;15.90;93.80;;;;;;5068397;28;20457;-79
2021/07/18 02:04:07;;;;;;;8.57;5.43;;;15.90;93.70;;;;;;5064747;28;20453;-79
2021/07/18 02:06:33;;;;;;;9.37;4.80;;;15.90;93.50;;;;;;5074071;28;20498;-79
2021/07/18 02:09:02;;;;;;;8.03;4.20;;;15.90;92.90;;;;;;5051195;28;20458;-78
2021/07/18 02:11:28;;;;;;;6.70;3.93;;;16.00;92.20;;;;;;5055162;28;20480;-78
2021/07/18 02:13:59;;;;;;;6.07;4.37;;;16.00;91.80;;;;;;5066102;28;20449;-79
2021/07/18 02:16:28;;;;;;;7.90;4.10;;;16.00;91.60;;;;;;5059802;28;20495;-79
2021/07/18 02:18:56;;;;;;;5.50;3.97;;;16.00;91.40;;;;;;5051395;28;20455;-78
2021/07/18 02:21:23;;;;;;;5.10;3.37;;;15.90;91.60;;;;;;5052535;28;20449;-79
2021/07/18 02:23:50;;;;;;;5.30;3.33;;;15.90;91.40;;;;;;5060744;28;20469;-79
2021/07/18 02:26:17;;;;;;;5.53;3.33;;;15.80;91.60;;;;;;5051232;28;20492;-79
2021/07/18 02:28:44;;;;;;;4.20;3.30;;;15.70;92.00;;;;;;5053814;28;20461;-79
2021/07/18 02:31:13;;;;;;;4.00;3.60;;;15.70;91.90;;;;;;5052299;28;20457;-79
2021/07/18 02:33:40;;;;;;;5.50;3.90;;;15.60;92.10;;;;;;5050426;28;20790;-79
2021/07/18 02:36:07;;;;;;;5.57;4.00;;;15.50;92.60;;;;;;5051088;28;20451;-79
2021/07/18 02:38:34;;;;;;;8.20;3.50;;;15.50;92.70;;;;;;5053629;28;20453;-79
2021/07/18 02:41:02;;;;;;;5.80;3.63;;;15.50;92.30;;;;;;5060112;28;20467;-78
2021/07/18 02:43:29;;;;;;;7.20;3.63;;;15.50;92.20;;;;;;5065275;28;20489;-79
2021/07/18 02:45:56;;;;;;;6.80;4.00;;;15.50;92.40;;;;;;5064513;28;20532;-79
2021/07/18 02:48:25;;;;;;;5.57;3.20;;;15.40;92.40;;;;;;5066574;28;20469;-79
2021/07/18 02:50:51;;;;;;;4.43;3.10;;;15.40;92.80;;;;;;5065899;28;20445;-79
2021/07/18 02:53:18;;;;;;;4.87;3.60;;;15.30;92.80;;;;;;5058106;28;20498;-79
2021/07/18 02:55:45;;;;;;;6.47;3.40;;;15.40;92.70;;;;;;5055735;28;20525;-79
2021/07/18 02:58:12;;;;;;;3.50;3.07;;;15.40;92.60;;;;;;5049644;28;20461;-79
2021/07/18 03:00:39;;;;;;;5.00;3.13;;;15.30;92.90;;;;;;5055770;28;20519;-78
2021/07/18 03:03:06;;;;;;;5.20;2.77;;;15.20;93.20;;;;;;5056749;28;20498;-79
2021/07/18 03:05:34;;;;;;;6.33;3.50;;;15.20;93.10;;;;;;5068006;28;20557;-79
2021/07/18 03:08:01;;;;;;;4.53;3.67;;;15.20;93.20;;;;;;5045407;28;20488;-79
2021/07/18 03:10:28;;;;;;;4.60;3.07;;;15.20;93.30;;;;;;5052827;28;20441;-79
2021/07/18 03:12:55;;;;;;;4.03;3.20;;;15.10;93.80;;;;;;5050752;28;20449;-79
2021/07/18 03:15:23;;;;;;;4.57;2.70;;;15.00;94.40;;;;;;5047647;28;20490;-79
2021/07/18 03:17:50;;;;;;;3.50;3.07;;;15.00;94.80;;;;;;5044577;28;20451;-79
2021/07/18 03:20:18;;;;;;;5.77;3.20;;;15.00;94.50;;;;;;5041886;28;20560;-79
2021/07/18 03:22:47;;;;;;;6.33;3.80;;;15.00;94.20;;;;;;5050823;28;20494;-79
2021/07/18 03:25:15;;;;;;;6.90;4.10;;;15.10;94.20;;;;;;5045964;28;20521;-79
2021/07/18 03:27:43;;;;;;;3.93;3.40;;;15.10;93.80;;;;;;5043277;28;20453;-79
2021/07/18 03:30:12;;;;;;;6.63;3.77;;;15.10;93.50;;;;;;5038002;28;20469;-79
2021/07/18 03:32:43;;;;;;;5.23;3.50;;;15.10;93.90;;;;;;5044004;28;20970;-79
2021/07/18 03:35:11;;;;;;;4.00;2.97;;;15.00;94.00;;;;;;5050787;28;20936;-79
2021/07/18 03:37:39;;;;;;;5.63;3.43;;;15.00;94.20;;;;;;5042631;28;21095;-79
2021/07/18 03:40:10;;;;;;;9.07;4.00;;;15.00;94.70;;;;;;5052393;28;20459;-79
2021/07/18 03:42:38;;;;;;;5.50;3.07;;;15.00;94.40;;;;;;5054312;28;20464;-79
2021/07/18 03:45:07;;;;;;;3.77;3.23;;;15.00;94.10;;;;;;5049419;28;20465;-79
2021/07/18 03:47:34;;;;;;;7.67;3.20;;;15.00;94.10;;;;;;5055554;28;20460;-79
2021/07/18 03:50:01;;;;;;;4.77;3.50;;;15.00;94.10;;;;;;5057955;28;20458;-80
2021/07/18 03:52:28;;;;;;;8.50;3.43;;;15.00;94.10;;;;;;5056023;28;20449;-79
2021/07/18 03:54:54;;;;;;;4.37;2.97;;;15.00;94.10;;;;;;5058679;28;20480;-79
2021/07/18 03:57:23;;;;;;;5.13;3.20;;;15.00;94.20;;;;;;5053224;28;21008;-79
2021/07/18 03:59:51;;;;;;;8.33;3.30;;;15.00;94.10;;;;;;5063367;28;20457;-79
2021/07/18 04:02:17;;;;;;;8.13;3.23;;;14.90;94.30;;;;;;5059121;28;20482;-79
2021/07/18 04:04:44;;;;;;;4.80;3.40;;;14.90;94.50;;;;;;5063715;28;20456;-79
2021/07/18 04:07:11;;;;;;;5.90;3.27;;;14.90;94.50;;;;;;5056814;28;20483;-79
2021/07/18 04:09:38;;;;;;;4.10;3.30;;;15.00;94.40;;;;;;5061176;28;20445;-79
2021/07/18 04:12:07;;;;;;;8.33;3.20;;;15.00;94.10;;;;;;5057281;28;20455;-78
2021/07/18 04:14:35;;;;;;;3.50;3.00;;;15.30;92.80;;;;;;5049566;28;20473;-79
2021/07/18 04:17:02;;;;;;;6.47;2.80;;;15.60;91.70;;;;;;5054756;28;20819;-79
2021/07/18 04:19:29;;;;;;;3.77;2.43;;;16.00;90.40;;;;;;5056565;28;20451;-80
2021/07/18 04:21:55;;;;;;;4.00;2.60;;;16.30;88.80;;;;;;5065278;28;20487;-79
2021/07/18 04:24:23;;;;;;;7.17;3.00;;;16.50;87.40;;;;;;5054370;28;20514;-79
2021/07/18 04:26:50;;;;;;;4.10;2.60;;;16.70;86.60;;;;;;5054915;28;20473;-78
2021/07/18 04:29:16;;;;;;;6.47;2.80;;;17.10;85.00;;;;;;5059910;28;20477;-78
2021/07/18 04:31:45;;;;;;;3.60;2.63;;;17.30;84.50;;;;;;5062951;28;20438;-79
2021/07/18 04:34:11;;;;;;;3.40;2.60;;;17.30;83.80;;;;;;5067570;28;21007;-79
2021/07/18 04:36:38;;;;;;;3.30;3.00;;;17.50;82.60;;;;;;5066584;28;20450;-79
2021/07/18 04:39:05;;;;;;;4.70;2.40;;;17.70;82.30;;;;;;5054283;28;20461;-79
2021/07/18 04:41:32;;;;;;;2.90;2.60;;;17.90;81.60;;;;;;5063465;28;20443;-79
2021/07/18 04:43:59;;;;;;;3.80;2.20;;;18.30;80.80;;;;;;5059030;28;20449;-79
2021/07/18 04:46:26;;;;;;;3.60;2.07;;;18.30;79.60;;;;;;5066225;28;20464;-79
2021/07/18 04:48:54;;;;;;;3.83;2.70;;;18.50;79.10;;;;;;5061487;28;20466;-79
2021/07/18 04:51:21;;;;;;;6.17;2.73;;;18.40;79.00;;;;;;5054627;28;20488;-80
2021/07/18 04:53:47;;;;;;;3.77;2.87;;;18.60;78.30;;;;;;5056702;28;20478;-80
2021/07/18 04:56:15;;;;;;;3.30;2.53;;;18.50;77.90;;;;;;5055626;28;20452;-79
2021/07/18 04:58:42;;;;;;;3.43;2.33;;;18.50;78.10;;;;;;5062065;28;20479;-79
2021/07/18 05:01:09;;;;;;;4.03;2.43;;;18.90;77.50;;;;;;5058590;28;20452;-79
2021/07/18 05:03:36;;;;;;;4.27;2.10;;;19.20;76.80;;;;;;5055383;28;20463;-79
2021/07/18 05:06:09;;;;;;;3.90;2.60;;;19.60;75.90;;;;;;5063293;28;20508;-79
2021/07/18 05:08:36;;;;;;;4.43;2.57;;;19.70;74.50;;;;;;5049770;28;20542;-79
2021/07/18 05:14:34;;;;;;;6.93;2.77;;;18.60;77.40;;;;;;5073055;28;20489;-84
2021/07/18 05:33:53;;;;;;;4.97;2.70;;;19.50;75.10;;;;;;5062090;28;20518;-85
2021/07/18 05:43:12;;;;;;;4.13;2.60;;;19.40;74.80;;;;;;5056723;28;20461;-85
2021/07/18 05:49:22;;;;;;;6.77;2.73;;;20.40;73.60;;;;;;5067551;28;20449;-81
2021/07/18 05:51:49;;;;;;;4.60;2.20;;;20.70;73.20;;;;;;5049960;28;20462;-80
2021/07/18 05:54:16;;;;;;;7.23;2.60;;;20.90;72.30;;;;;;5058081;28;20636;-80
2021/07/18 05:56:43;;;;;;;6.07;2.70;;;20.50;72.20;;;;;;5057860;28;20464;-80
2021/07/18 05:59:10;;;;;;;6.07;2.47;;;20.80;71.90;;;;;;5055518;28;20492;-80
2021/07/18 06:01:37;;;;;;;3.63;2.63;;;20.20;71.60;;;;;;5063636;28;20447;-79
2021/07/18 06:04:04;;;;;;;4.90;2.50;;;20.00;72.80;;;;;;5058658;28;20438;-78
2021/07/18 06:06:32;;;;;;;3.20;2.47;;;20.20;72.80;;;;;;5061176;28;20525;-79
2021/07/18 06:08:59;;;;;;;3.37;2.80;;;20.50;72.70;;;;;;5058682;28;20491;-80
2021/07/18 06:11:26;;;;;;;4.57;2.47;;;20.50;72.20;;;;;;5058539;28;20450;-80
2021/07/18 06:13:53;;;;;;;3.13;2.70;;;20.60;72.10;;;;;;5059262;28;20765;-80
2021/07/18 06:16:20;;;;;;;6.13;2.63;;;20.90;72.00;;;;;;5052630;28;20932;-79
2021/07/18 06:18:47;;;;;;;4.20;2.90;;;20.90;71.50;;;;;;5050131;28;20453;-79
2021/07/18 06:21:15;;;;;;;5.80;2.50;;;20.70;71.40;;;;;;5051942;28;20692;-79
2021/07/18 06:23:43;;;;;;;4.17;3.10;;;20.20;72.40;;;;;;5068904;28;20545;-80
2021/07/18 06:26:11;;;;;;;6.13;3.10;;;19.80;72.70;;;;;;5051311;28;20540;-79
2021/07/18 06:28:38;;;;;;;5.10;3.33;;;19.50;73.20;;;;;;5055759;28;20448;-79
2021/07/18 06:31:05;;;;;;;4.73;2.97;;;19.30;74.00;;;;;;5057227;28;20450;-80
2021/07/18 06:33:32;;;;;;;6.33;3.10;;;19.20;74.70;;;;;;5059515;28;21021;-79
2021/07/18 06:35:59;;;;;;;4.70;2.40;;;18.90;75.30;;;;;;5056455;28;20459;-78
2021/07/18 06:38:26;;;;;;;10.23;3.33;;;18.70;75.90;;;;;;5050453;28;20460;-79
2021/07/18 06:40:54;;;;;;;3.60;3.30;;;18.70;76.20;;;;;;5051845;28;20449;-78
2021/07/18 06:43:21;;;;;;;4.47;3.40;;;18.70;76.70;;;;;;5051865;28;20463;-80
2021/07/18 06:45:48;;;;;;;5.43;3.27;;;18.80;76.90;;;;;;5050588;28;20456;-79
2021/07/18 06:48:16;;;;;;;7.10;3.20;;;18.80;76.50;;;;;;5045322;28;20465;-79
2021/07/18 06:50:43;;;;;;;11.13;3.77;;;18.80;76.50;;;;;;5044012;28;20460;-79
2021/07/18 06:53:10;;;;;;;5.83;3.50;;;19.00;76.60;;;;;;5047827;28;20928;-79
2021/07/18 06:55:39;;;;;;;6.23;3.27;;;19.10;76.20;;;;;;5050420;28;20467;-79
2021/07/18 06:58:10;;;;;;;7.00;3.43;;;19.20;76.10;;;;;;5053949;28;20455;-79
2021/07/18 07:00:37;;;;;;;6.17;3.50;;;19.30;76.10;;;;;;5053716;28;20447;-79
2021/07/18 07:03:05;;;;;;;4.10;3.40;;;19.70;75.50;;;;;;5057320;28;20439;-79
2021/07/18 07:05:31;;;;;;;7.30;3.70;;;19.70;74.90;;;;;;5058291;28;20472;-78
2021/07/18 07:07:58;;;;;;;3.90;3.03;;;19.70;74.70;;;;;;5051544;28;20479;-79
2021/07/18 07:10:25;;;;;;;3.53;3.00;;;19.70;74.50;;;;;;5051506;28;20501;-79
2021/07/18 07:12:53;;;;;;;8.20;3.50;;;19.80;74.40;;;;;;5053442;28;20744;-78
2021/07/18 07:15:22;;;;;;;4.60;3.80;;;19.90;74.70;;;;;;5052743;28;20493;-79
2021/07/18 07:17:51;;;;;;;5.10;3.70;;;20.10;73.80;;;;;;5054476;28;20506;-79
2021/07/18 07:20:18;;;;;;;5.23;3.30;;;20.40;73.80;;;;;;5047149;28;20500;-80
2021/07/18 07:22:45;;;;;;;3.73;3.43;;;20.60;72.50;;;;;;5046543;28;20973;-80
2021/07/18 07:25:15;;;;;;;3.67;3.20;;;20.70;72.60;;;;;;5049974;28;20534;-80
2021/07/18 07:27:42;;;;;;;5.13;3.13;;;21.00;72.00;;;;;;5051034;28;20541;-80
2021/07/18 07:30:12;;;;;;;4.17;3.77;;;21.20;72.50;;;;;;5048803;28;20450;-79
2021/07/18 07:32:43;;;;;;;7.27;4.00;;;21.10;71.50;;;;;;5046230;28;20500;-80
2021/07/18 07:35:12;;;;;;;5.80;3.57;;;20.90;72.00;;;;;;5044176;28;20452;-80
2021/07/18 07:37:42;;;;;;;4.47;3.60;;;20.70;72.00;;;;;;5045593;28;21015;-79
2021/07/18 07:40:11;;;;;;;7.60;3.60;;;20.60;72.00;;;;;;5045206;28;20456;-79
2021/07/18 07:42:38;;;;;;;6.20;3.77;;;20.60;72.10;;;;;;5048294;28;20508;-78
2021/07/18 07:45:09;;;;;;;4.40;3.70;;;20.60;72.30;;;;;;5053005;28;20446;-78
2021/07/18 07:47:36;;;;;;;8.57;4.50;;;20.40;72.40;;;;;;5060907;28;20550;-79
2021/07/18 07:50:05;;;;;;;5.90;3.70;;;20.60;72.10;;;;;;5055515;28;20487;-80
2021/07/18 07:52:32;;;;;;;6.73;3.80;;;20.70;72.20;;;;;;5059459;28;20525;-80
2021/07/18 07:55:01;;;;;;;5.03;3.57;;;20.70;72.10;;;;;;5053147;28;20440;-80
2021/07/18 07:57:28;;;;;;;13.53;3.93;;;20.70;72.00;;;;;;5055243;28;20453;-80
2021/07/18 07:59:55;;;;;;;4.20;3.80;;;20.80;72.50;;;;;;5058575;28;20463;-80
2021/07/18 08:02:22;;;;;;;5.77;3.60;;;21.10;71.80;;;;;;5059021;28;20464;-79
2021/07/18 08:04:49;;;;;;;9.37;4.43;;;21.20;70.80;;;;;;5062021;28;20453;-79
2021/07/18 08:07:18;;;;;;;7.70;4.20;;;20.90;70.40;;;;;;5054031;28;20576;-80
2021/07/18 08:09:45;;;;;;;5.70;4.00;;;20.90;71.30;;;;;;5052675;28;20450;-80
2021/07/18 08:12:12;;;;;;;5.70;4.03;;;20.80;71.30;;;;;;5061645;28;20491;-80
2021/07/18 08:14:39;;;;;;;5.23;4.70;;;21.00;70.40;;;;;;5062245;28;20465;-80
2021/07/18 08:17:06;;;;;;;6.57;3.83;;;21.20;70.20;;;;;;5058005;28;20458;-79
2021/07/18 08:19:37;;;;;;;5.47;4.37;;;21.30;70.00;;;;;;5050862;28;20442;-80
2021/07/18 08:22:04;;;;;;;5.07;3.73;;;21.40;70.10;;;;;;5059609;28;20487;-79
2021/07/18 08:24:34;;;;;;;4.23;3.83;;;21.80;70.10;;;;;;5049554;28;20481;-80
2021/07/18 08:27:01;;;;;;;3.93;3.40;;;21.80;69.50;;;;;;5061373;28;20475;-79
2021/07/18 08:29:29;;;;;;;4.83;3.73;;;21.70;69.50;;;;;;5052352;28;20457;-79
2021/07/18 08:31:58;;;;;;;3.90;3.47;;;21.70;70.20;;;;;;5057416;28;20560;-79
2021/07/18 08:34:26;;;;;;;6.30;3.97;;;21.60;69.90;;;;;;5054096;28;20464;-79
2021/07/18 08:36:55;;;;;;;5.83;3.97;;;21.90;69.30;;;;;;5057405;28;20449;-80
2021/07/18 08:39:22;;;;;;;5.30;3.40;;;22.10;69.10;;;;;;5054879;28;20476;-79
2021/07/18 08:41:53;;;;;;;4.60;3.93;;;22.50;68.90;;;;;;5045639;28;20441;-79
2021/07/18 08:44:21;;;;;;;9.83;3.93;;;22.50;67.70;;;;;;5055765;28;20944;-79
2021/07/18 08:46:50;;;;;;;7.03;3.80;;;22.00;67.70;;;;;;5050847;28;21167;-78
2021/07/18 08:49:17;;;;;;;5.33;3.97;;;21.90;68.50;;;;;;5053941;28;20450;-78
2021/07/18 08:51:44;;;;;;;3.77;3.47;;;21.90;68.70;;;;;;5051427;28;20488;-79
2021/07/18 08:54:12;;;;;;;4.70;4.23;;;21.80;68.50;;;;;;5054610;28;20450;-79
2021/07/18 08:56:40;;;;;;;4.67;3.80;;;21.60;68.70;;;;;;5060549;28;20978;-80
2021/07/18 08:59:11;;;;;;;4.83;4.30;;;21.60;68.20;;;;;;5055473;28;20465;-80
2021/07/18 09:01:42;;;;;;;6.13;4.60;;;21.70;68.40;;;;;;5058161;28;20535;-79
2021/07/18 09:04:09;;;;;;;4.67;4.20;;;21.90;68.10;;;;;;5061058;28;20449;-79
2021/07/18 09:06:45;;;;;;;6.10;4.03;;;21.90;67.60;;;;;;5055717;28;20471;-79
2021/07/18 09:09:14;;;;;;;6.23;4.27;;;21.90;67.60;;;;;;5050827;28;20552;-80
2021/07/18 09:11:54;;;;;;;4.90;4.37;;;22.20;67.90;;;;;;5055426;28;20965;-80
2021/07/18 09:14:23;;;;;;;5.90;4.30;;;22.30;66.60;;;;;;5052116;28;20475;-80
2021/07/18 09:16:52;;;;;;;4.97;3.50;;;22.30;66.90;;;;;;5054679;28;20493;-79
2021/07/18 09:19:22;;;;;;;8.20;3.97;;;22.30;66.00;;;;;;5053454;28;20507;-79
2021/07/18 09:22:11;;;;;;;6.90;4.67;;;22.40;65.50;;;;;;5053575;28;20545;-79
2021/07/18 09:24:40;;;;;;;5.77;3.87;;;22.20;65.20;;;;;;5052981;28;20456;-80
2021/07/18 09:27:22;;;;;;;5.80;4.30;;;22.20;65.80;;;;;;5055315;28;20507;-80
2021/07/18 09:29:52;;;;;;;7.10;3.80;;;22.40;65.60;;;;;;5055483;28;20453;-80
2021/07/18 09:32:22;;;;;;;6.93;3.90;;;22.60;65.50;;;;;;5052181;28;20952;-79
2021/07/18 09:34:51;;;;;;;6.90;3.60;;;22.60;65.40;;;;;;5052383;28;20458;-78
2021/07/18 09:37:22;;;;;;;6.70;4.50;;;22.70;65.80;;;;;;5058814;28;21105;-79
2021/07/18 09:39:51;;;;;;;6.33;3.83;;;22.70;65.30;;;;;;5057247;28;20449;-79
2021/07/18 09:42:46;;;;;;;5.90;4.00;;;22.90;65.50;;;;;;5049778;28;20453;-78
2021/07/18 09:45:20;;;;;;;5.80;4.27;;;22.70;64.00;;;;;;5042519;28;20446;-77
2021/07/18 09:47:55;;;;;;;6.90;3.87;;;22.70;64.80;;;;;;5050161;28;20552;-77
2021/07/18 09:50:25;;;;;;;4.20;3.80;;;22.60;64.20;;;;;;5043986;28;20467;-79
2021/07/18 09:53:09;;;;;;;5.63;3.97;;;22.60;63.80;;;;;;5049191;28;20522;-79
2021/07/18 09:55:36;;;;;;;5.00;3.93;;;22.50;63.30;;;;;;5052957;28;20440;-78
2021/07/18 09:58:03;;;;;;;4.83;4.00;;;22.70;63.50;;;;;;5049554;28;20445;-77
2021/07/18 10:00:42;;;;;;;6.00;4.30;;;22.80;63.10;;;;;;5048605;28;20503;-77
2021/07/18 10:03:12;;;;;;;5.50;4.40;;;22.60;63.40;;;;;;5044130;28;20529;-77
2021/07/18 10:05:39;;;;;;;4.60;4.20;;;22.70;62.70;;;;;;5047460;28;20441;-78
2021/07/18 10:08:06;;;;;;;6.40;3.90;;;22.80;62.90;;;;;;5054213;28;20509;-78
2021/07/18 10:10:34;;;;;;;8.40;4.73;;;23.10;63.50;;;;;;5044248;28;20990;-78
2021/07/18 10:13:02;;;;;;;5.13;4.60;;;23.00;62.50;;;;;;5050375;28;20757;-79
2021/07/18 10:15:29;;;;;;;7.50;4.47;;;23.10;62.90;;;;;;5049536;28;20541;-79
2021/07/18 10:17:58;;;;;;;6.00;4.60;;;23.40;61.70;;;;;;5045468;28;20454;-78
2021/07/18 10:20:25;;;;;;;5.73;4.30;;;23.50;61.10;;;;;;5050942;28;20448;-79
2021/07/18 10:22:54;;;;;;;9.13;4.90;;;23.70;61.60;;;;;;5058590;28;20450;-78
2021/07/18 10:25:22;;;;;;;7.20;5.07;;;23.60;60.30;;;;;;5056344;28;20525;-79
2021/07/18 10:27:49;;;;;;;5.97;5.40;;;23.70;60.80;;;;;;5049292;28;20472;-77
2021/07/18 10:30:18;;;;;;;7.10;4.90;;;23.60;60.10;;;;;;5052657;28;20446;-77
2021/07/18 10:32:45;;;;;;;5.37;4.83;;;23.70;60.10;;;;;;5048528;28;20450;-78
2021/07/18 10:35:14;;;;;;;5.70;5.20;;;23.60;59.80;;;;;;5047835;28;20485;-78
2021/07/18 10:37:43;;;;;;;6.10;5.17;;;23.60;59.70;;;;;;5055559;28;20481;-79
2021/07/18 10:40:18;;;;;;;6.57;5.00;;;23.50;59.30;;;;;;5056165;28;20473;-78
2021/07/18 10:42:45;;;;;;;6.20;5.30;;;23.60;60.00;;;;;;5050055;28;20456;-80
2021/07/18 10:45:20;;;;;;;9.27;5.73;;;23.80;59.70;;;;;;5050013;28;20449;-78
2021/07/18 10:48:05;;;;;;;6.00;5.37;;;23.90;59.60;;;;;;5043652;28;20461;-78
2021/07/18 10:50:51;;;;;;;6.10;5.30;;;24.10;59.60;;;;;;5044313;28;20541;-77
2021/07/18 10:53:20;;;;;;;6.60;5.13;;;24.20;59.90;;;;;;5048916;28;20457;-77
2021/07/18 10:55:47;;;;;;;6.60;5.97;;;24.20;59.40;;;;;;5045765;28;20450;-77
2021/07/18 10:58:48;;;;;;;6.90;5.83;;;24.10;58.80;;;;;;5049615;28;20434;-78
2021/07/18 11:01:42;;;;;;;8.70;6.13;;;24.00;58.30;;;;;;5045774;28;20445;-77
2021/07/18 11:04:39;;;;;;;6.90;5.50;;;24.10;58.40;;;;;;5053182;28;20448;-78
2021/07/18 11:07:31;;;;;;;7.10;6.00;;;24.10;58.80;;;;;;5046820;28;20462;-78
2021/07/18 11:10:02;;;;;;;7.47;6.37;;;24.40;58.10;;;;;;5043643;28;20454;-78
2021/07/18 11:12:31;;;;;;;7.40;6.70;;;24.60;58.20;;;;;;5050276;28;20474;-78
2021/07/18 11:15:32;;;;;;;7.90;7.10;;;24.60;57.70;;;;;;5049657;28;20445;-77
2021/07/18 11:18:03;;;;;;;8.53;6.70;;;24.60;56.50;;;;;;5050804;28;20522;-78
2021/07/18 11:20:40;;;;;;;7.37;6.57;;;24.60;57.00;;;;;;5051548;28;20661;-78
2021/07/18 11:23:10;;;;;;;7.70;6.90;;;24.80;57.30;;;;;;5058535;28;20487;-78
2021/07/18 11:25:51;;;;;;;7.80;6.50;;;24.70;57.40;;;;;;5053629;28;20477;-78
2021/07/18 11:28:39;;;;;;;7.73;7.03;;;24.80;57.40;;;;;;5058426;28;20469;-79
2021/07/18 11:31:41;;;;;;;5.93;5.43;;;24.80;57.40;;;;;;5054564;28;20445;-78
2021/07/18 11:34:19;;;;;;;8.60;6.60;;;24.90;57.50;;;;;;5047269;28;20442;-79
2021/07/18 11:36:54;;;;;;;7.70;6.90;;;25.00;57.70;;;;;;5048846;28;20491;-78
2021/07/18 11:39:25;;;;;;;7.93;7.23;;;25.00;57.70;;;;;;5049809;28;20453;-78
2021/07/18 11:41:52;;;;;;;12.67;7.70;;;25.00;57.20;;;;;;5049905;28;21014;-79
2021/07/18 11:44:24;;;;;;;7.70;7.00;;;24.90;57.00;;;;;;5044977;28;20557;-79
2021/07/18 11:46:54;;;;;;;7.87;7.17;;;25.10;57.30;;;;;;5045564;28;20939;-79
2021/07/18 11:49:27;;;;;;;8.10;7.40;;;25.30;57.40;;;;;;5044653;28;20464;-79
2021/07/18 11:51:54;;;;;;;8.70;6.80;;;25.50;57.00;;;;;;5049040;28;20485;-79
2021/07/18 11:54:25;;;;;;;9.80;8.90;;;25.50;57.10;;;;;;5049328;28;20456;-79
2021/07/18 11:56:52;;;;;;;8.83;7.87;;;25.50;56.50;;;;;;5046972;28;20468;-80
2021/07/18 11:59:20;;;;;;;8.73;7.83;;;25.70;57.10;;;;;;5051100;28;20494;-78
2021/07/18 12:01:49;;;;;;;8.40;7.43;;;25.70;56.30;;;;;;5048363;28;20446;-79
2021/07/18 12:04:19;;;;;;;10.20;8.03;;;25.60;56.20;;;;;;5042790;28;20442;-77
2021/07/18 12:06:46;;;;;;;9.93;8.20;;;25.50;57.10;;;;;;5053668;28;20449;-78
2021/07/18 12:09:15;;;;;;;8.20;7.00;;;25.80;57.50;;;;;;5049520;28;20516;-78
2021/07/18 12:11:48;;;;;;;9.10;7.50;;;25.70;56.30;;;;;;5048456;28;20539;-78
2021/07/18 12:14:15;;;;;;;8.50;7.57;;;25.90;56.30;;;;;;5050708;28;20491;-78
2021/07/18 12:16:44;;;;;;;12.07;8.03;;;25.80;55.80;;;;;;5049901;28;20473;-79
2021/07/18 12:19:12;;;;;;;8.73;7.93;;;25.80;57.20;;;;;;5051495;28;20461;-78
2021/07/18 12:21:41;;;;;;;9.17;8.27;;;25.60;56.00;;;;;;5046980;28;20994;-79
2021/07/18 12:24:16;;;;;;;10.37;8.20;;;25.50;56.10;;;;;;5046529;28;20441;-79
2021/07/18 12:26:46;;;;;;;7.77;7.07;;;25.60;56.20;;;;;;5041821;28;20469;-79
2021/07/18 12:29:15;;;;;;;7.70;6.77;;;25.80;56.30;;;;;;5046260;28;20473;-78
2021/07/18 12:31:44;;;;;;;11.70;7.50;;;25.80;55.90;;;;;;5044701;28;20450;-79
2021/07/18 12:34:11;;;;;;;8.97;8.07;;;25.80;55.30;;;;;;5044720;28;20499;-80
2021/07/18 12:36:55;;;;;;;8.67;7.83;;;25.90;54.50;;;;;;5048402;28;20495;-79
2021/07/18 12:39:23;;;;;;;9.40;8.33;;;25.80;53.80;;;;;;5044546;28;20508;-79
2021/07/18 12:41:52;;;;;;;8.00;7.30;;;25.80;54.20;;;;;;5048368;28;20453;-79
2021/07/18 12:44:23;;;;;;;9.50;8.50;;;25.90;54.00;;;;;;5045073;28;20437;-79
2021/07/18 12:46:50;;;;;;;10.77;9.60;;;26.10;54.10;;;;;;5051353;28;20475;-80
2021/07/18 12:49:18;;;;;;;10.07;9.07;;;25.90;53.80;;;;;;5043979;28;20481;-79
2021/07/18 12:51:45;;;;;;;9.73;8.37;;;25.80;53.70;;;;;;5052330;28;20701;-78
2021/07/18 12:54:14;;;;;;;10.03;8.70;;;25.80;54.20;;;;;;5047713;28;20464;-79
2021/07/18 12:56:40;;;;;;;13.00;10.00;;;25.80;53.40;;;;;;5052623;28;20632;-80
2021/07/18 12:59:10;;;;;;;9.90;9.00;;;25.80;54.00;;;;;;5047950;28;20456;-78
2021/07/18 13:01:38;;;;;;;10.40;9.40;;;26.00;53.90;;;;;;5052640;28;20449;-78
2021/07/18 13:04:07;;;;;;;9.10;8.30;;;26.10;53.80;;;;;;5054705;28;20458;-79
2021/07/18 13:06:41;;;;;;;8.97;8.07;;;26.20;54.40;;;;;;5052688;28;20880;-79
2021/07/18 13:09:20;;;;;;;10.53;9.50;;;26.50;54.30;;;;;;5053828;28;20474;-79
2021/07/18 13:11:51;;;;;;;10.03;9.10;;;26.30;53.10;;;;;;5057092;28;20537;-79
2021/07/18 13:14:25;;;;;;;10.20;9.30;;;26.20;53.80;;;;;;5068740;28;20962;-78
2021/07/18 13:17:04;;;;;;;10.37;9.30;;;26.20;53.80;;;;;;5046796;28;20492;-79
2021/07/18 13:19:31;;;;;;;9.90;9.00;;;26.30;54.20;;;;;;5048902;28;20447;-77
2021/07/18 13:22:00;;;;;;;10.10;9.10;;;26.50;54.30;;;;;;5050521;28;20452;-78
2021/07/18 13:24:33;;;;;;;11.80;9.10;;;26.60;54.00;;;;;;5048729;28;20532;-78
2021/07/18 13:27:14;;;;;;;9.40;8.40;;;26.50;54.10;;;;;;5056112;28;20465;-79